Time;durP1;ratioP1;P1;durP2;ratioP2;P2;SDS_P1;SDS_P2;PMS_P1;PMS_P2;Temp;Humidity;BMP_temperature;BMP_pressure;BME280_temperature;BME280_humidity;BME280_pressure;Samples;Min_cycle;Max_cycle;Signal;HPM_P1;HPM_P2
2023/08/21 00:00:20;;;;;;;7.47;2.10;;;;;;;;;;20927656;28;20041;-62
2023/08/21 00:10:21;;;;;;;7.50;1.52;;;;;;;;;;20925589;28;20049;-62
2023/08/21 00:20:22;;;;;;;5.40;1.85;;;;;;;;;;20926026;28;20041;-62
2023/08/21 00:30:23;;;;;;;6.03;1.50;;;;;;;;;;20925565;28;20121;-63
2023/08/21 00:40:24;;;;;;;4.68;1.70;;;;;;;;;;20922204;28;20052;-62
2023/08/21 00:50:25;;;;;;;6.00;1.65;;;;;;;;;;20922391;28;20049;-62
2023/08/21 01:00:27;;;;;;;10.00;1.98;;;;;;;;;;20921986;28;20064;-62
2023/08/21 01:10:40;;;;;;;6.05;1.83;;;;;;;;;;20921253;28;20090;-63
2023/08/21 01:20:41;;;;;;;6.50;1.65;;;;;;;;;;20920303;28;20102;-62
2023/08/21 01:30:43;;;;;;;3.97;1.48;;;;;;;;;;20919460;28;20049;-63
2023/08/21 01:40:44;;;;;;;5.43;1.83;;;;;;;;;;20918721;28;20052;-62
2023/08/21 01:50:45;;;;;;;7.10;2.05;;;;;;;;;;20918122;28;20057;-61
2023/08/21 02:00:47;;;;;;;5.95;2.08;;;;;;;;;;20918310;28;20037;-62
2023/08/21 02:10:51;;;;;;;5.00;1.70;;;;;;;;;;20917286;28;20398;-62
2023/08/21 02:20:52;;;;;;;6.75;2.20;;;;;;;;;;20916568;28;20478;-61
2023/08/21 02:30:53;;;;;;;7.00;1.90;;;;;;;;;;20914795;28;20041;-61
2023/08/21 02:40:54;;;;;;;3.17;1.73;;;;;;;;;;20915499;28;20435;-62
2023/08/21 02:50:55;;;;;;;4.57;1.85;;;;;;;;;;20914111;28;20048;-62
2023/08/21 03:00:57;;;;;;;3.60;1.25;;;;;;;;;;20913354;28;20048;-62
2023/08/21 03:10:58;;;;;;;4.80;1.40;;;;;;;;;;20913571;28;20480;-62
2023/08/21 03:21:00;;;;;;;3.80;1.77;;;;;;;;;;20911882;28;20102;-61
2023/08/21 03:31:01;;;;;;;3.00;2.00;;;;;;;;;;20912444;28;20037;-61
2023/08/21 03:41:02;;;;;;;12.80;8.60;;;;;;;;;;20912326;28;20052;-62
2023/08/21 03:51:03;;;;;;;7.43;3.25;;;;;;;;;;20911194;28;20136;-62
2023/08/21 04:01:05;;;;;;;6.85;1.80;;;;;;;;;;20910988;28;20120;-63
2023/08/21 04:11:06;;;;;;;7.70;1.40;;;;;;;;;;20911908;28;20140;-61
2023/08/21 04:21:08;;;;;;;2.55;1.55;;;;;;;;;;20926294;28;20041;-61
2023/08/21 04:31:09;;;;;;;3.38;1.60;;;;;;;;;;20925536;28;20115;-63
2023/08/21 04:41:10;;;;;;;3.00;1.30;;;;;;;;;;20924645;28;20379;-61
2023/08/21 04:51:12;;;;;;;5.05;1.80;;;;;;;;;;20923664;28;20079;-62
2023/08/21 05:01:13;;;;;;;5.10;1.80;;;;;;;;;;20923121;28;20102;-62
2023/08/21 05:11:14;;;;;;;8.50;1.85;;;;;;;;;;20922708;28;20551;-62
2023/08/21 05:21:15;;;;;;;6.03;1.67;;;;;;;;;;20921726;28;20044;-62
2023/08/21 05:31:16;;;;;;;4.97;1.77;;;;;;;;;;20919068;28;20045;-62
2023/08/21 05:41:17;;;;;;;4.15;1.50;;;;;;;;;;20919024;28;20132;-62
2023/08/21 05:51:18;;;;;;;8.07;2.05;;;;;;;;;;20918979;28;20115;-62
2023/08/21 06:01:19;;;;;;;7.18;1.73;;;;;;;;;;20917321;28;20130;-61
2023/08/21 06:11:21;;;;;;;7.30;2.42;;;;;;;;;;20918127;28;20044;-61
2023/08/21 06:21:22;;;;;;;7.00;2.08;;;;;;;;;;20916763;28;20087;-62
2023/08/21 06:31:23;;;;;;;16.77;7.72;;;;;;;;;;20916058;28;20041;-62
2023/08/21 06:41:25;;;;;;;9.13;2.00;;;;;;;;;;20915465;28;20402;-61
2023/08/21 06:51:26;;;;;;;7.28;2.13;;;;;;;;;;20914954;28;20064;-62
2023/08/21 07:01:27;;;;;;;8.00;1.80;;;;;;;;;;20912696;28;20052;-63
2023/08/21 07:11:28;;;;;;;3.35;1.35;;;;;;;;;;20913766;28;20037;-62
2023/08/21 07:21:29;;;;;;;7.10;1.98;;;;;;;;;;20911842;28;20041;-62
2023/08/21 07:31:31;;;;;;;6.82;1.95;;;;;;;;;;20911763;28;20057;-62
2023/08/21 07:41:32;;;;;;;6.07;1.98;;;;;;;;;;20912654;28;20483;-62
2023/08/21 07:51:33;;;;;;;4.45;1.83;;;;;;;;;;20922288;28;20057;-62
2023/08/21 08:01:34;;;;;;;3.72;1.83;;;;;;;;;;20927686;28;20060;-61
2023/08/21 08:11:35;;;;;;;8.10;2.00;;;;;;;;;;20927684;28;20044;-62
2023/08/21 08:21:36;;;;;;;5.85;1.75;;;;;;;;;;20926261;28;20045;-62
2023/08/21 08:31:38;;;;;;;5.30;2.05;;;;;;;;;;20925856;28;20049;-62
2023/08/21 08:41:48;;;;;;;12.90;2.25;;;;;;;;;;20925337;28;20045;-62
2023/08/21 08:51:51;;;;;;;3.88;2.15;;;;;;;;;;20923722;28;20118;-62
2023/08/21 09:01:52;;;;;;;5.25;1.75;;;;;;;;;;20922405;28;20052;-61
2023/08/21 09:11:54;;;;;;;5.35;3.30;;;;;;;;;;20921220;28;20049;-63
2023/08/21 09:21:55;;;;;;;9.10;2.38;;;;;;;;;;20922062;28;20115;-63
2023/08/21 09:31:57;;;;;;;7.35;2.88;;;;;;;;;;20920988;28;20406;-63
2023/08/21 09:41:59;;;;;;;5.05;3.97;;;;;;;;;;20919957;28;20483;-62
2023/08/21 09:52:00;;;;;;;5.80;2.13;;;;;;;;;;20918889;28;20127;-63
2023/08/21 10:02:01;;;;;;;6.88;2.20;;;;;;;;;;20918680;28;20388;-63
2023/08/21 10:12:02;;;;;;;7.35;2.38;;;;;;;;;;20917453;28;20080;-61
2023/08/21 10:22:03;;;;;;;5.05;2.08;;;;;;;;;;20916276;28;20069;-62
2023/08/21 10:32:05;;;;;;;7.93;1.98;;;;;;;;;;20914649;28;20052;-62
2023/08/21 10:42:13;;;;;;;4.03;1.55;;;;;;;;;;20914350;28;20045;-62
2023/08/21 10:52:15;;;;;;;3.78;1.55;;;;;;;;;;20913196;28;20059;-62
2023/08/21 11:02:16;;;;;;;7.05;2.25;;;;;;;;;;20913800;28;20049;-63
2023/08/21 11:12:21;;;;;;;6.43;2.30;;;;;;;;;;20913901;28;20510;-63
2023/08/21 11:22:29;;;;;;;6.75;2.13;;;;;;;;;;20913004;28;20052;-63
2023/08/21 11:32:30;;;;;;;6.60;2.65;;;;;;;;;;20912149;28;20048;-64
2023/08/21 11:42:32;;;;;;;5.30;2.17;;;;;;;;;;20911856;28;20045;-63
2023/08/21 11:52:35;;;;;;;9.77;2.25;;;;;;;;;;20911155;28;20136;-64
2023/08/21 12:02:36;;;;;;;8.00;2.13;;;;;;;;;;20912091;28;20517;-63
2023/08/21 12:12:37;;;;;;;9.10;2.40;;;;;;;;;;20910428;28;20060;-63
2023/08/21 12:22:39;;;;;;;4.68;2.50;;;;;;;;;;20910812;28;20405;-63
2023/08/21 12:32:40;;;;;;;4.45;2.70;;;;;;;;;;20913317;28;20071;-63
2023/08/21 12:42:41;;;;;;;4.68;1.70;;;;;;;;;;20925225;28;20405;-63
2023/08/21 12:52:42;;;;;;;4.57;1.83;;;;;;;;;;20923594;28;20514;-63
2023/08/21 13:02:44;;;;;;;5.45;1.73;;;;;;;;;;20923941;28;20101;-64
2023/08/21 13:12:45;;;;;;;3.90;1.70;;;;;;;;;;20921846;28;20051;-63
2023/08/21 13:22:47;;;;;;;4.30;1.58;;;;;;;;;;20920860;28;20036;-63
2023/08/21 13:32:48;;;;;;;4.10;2.08;;;;;;;;;;20920829;28;20131;-64
2023/08/21 13:42:49;;;;;;;4.50;1.70;;;;;;;;;;20919436;28;20190;-63
2023/08/21 13:52:50;;;;;;;4.00;2.30;;;;;;;;;;20918243;28;20060;-64
2023/08/21 14:02:51;;;;;;;6.20;2.28;;;;;;;;;;20918182;28;20494;-63
2023/08/21 14:12:53;;;;;;;7.82;1.30;;;;;;;;;;20918018;28;20474;-64
2023/08/21 14:22:54;;;;;;;3.45;1.20;;;;;;;;;;20915448;28;20140;-64
2023/08/21 14:32:56;;;;;;;6.72;1.70;;;;;;;;;;20914073;28;20098;-63
2023/08/21 14:42:58;;;;;;;4.38;1.73;;;;;;;;;;20914593;28;20052;-63
2023/08/21 14:52:59;;;;;;;7.50;2.20;;;;;;;;;;20914160;28;20045;-63
2023/08/21 15:03:00;;;;;;;3.22;1.35;;;;;;;;;;20911838;28;20051;-63
2023/08/21 15:13:01;;;;;;;3.25;1.40;;;;;;;;;;20912422;28;20115;-63
2023/08/21 15:23:02;;;;;;;5.10;1.38;;;;;;;;;;20913193;28;20037;-62
2023/08/21 15:33:04;;;;;;;4.97;1.63;;;;;;;;;;20913693;28;20045;-64
2023/08/21 15:43:07;;;;;;;7.40;1.60;;;;;;;;;;20912127;28;20056;-64
2023/08/21 15:53:08;;;;;;;4.57;1.53;;;;;;;;;;20912172;28;20057;-65
2023/08/21 16:03:10;;;;;;;3.85;1.50;;;;;;;;;;20912088;28;20045;-62
2023/08/21 16:13:11;;;;;;;4.22;1.48;;;;;;;;;;20922339;28;20076;-63
2023/08/21 16:23:13;;;;;;;4.32;1.55;;;;;;;;;;20926458;28;20041;-63
2023/08/21 16:33:14;;;;;;;4.88;1.67;;;;;;;;;;20925192;28;20045;-63
2023/08/21 16:43:15;;;;;;;4.07;1.75;;;;;;;;;;20925250;28;20122;-63
2023/08/21 16:53:16;;;;;;;2.47;1.67;;;;;;;;;;20922308;28;20053;-63
2023/08/21 17:03:17;;;;;;;3.95;1.60;;;;;;;;;;20922350;28;20044;-63
2023/08/21 17:13:18;;;;;;;4.45;1.73;;;;;;;;;;20923234;28;20132;-63
2023/08/21 17:23:19;;;;;;;3.13;1.73;;;;;;;;;;20921532;28;20041;-64
2023/08/21 17:33:21;;;;;;;3.17;1.52;;;;;;;;;;20921675;28;20076;-63
2023/08/21 17:43:22;;;;;;;3.03;1.65;;;;;;;;;;20919614;28;20049;-63
2023/08/21 17:53:23;;;;;;;4.10;1.95;;;;;;;;;;20919672;28;20056;-63
2023/08/21 18:03:24;;;;;;;8.32;1.88;;;;;;;;;;20917277;28;20049;-62
2023/08/21 18:13:25;;;;;;;5.32;1.50;;;;;;;;;;20917535;28;20045;-63
2023/08/21 18:23:27;;;;;;;5.75;2.25;;;;;;;;;;20916252;28;20041;-63
2023/08/21 18:33:28;;;;;;;5.93;2.03;;;;;;;;;;20915163;28;20045;-63
2023/08/21 18:43:29;;;;;;;11.38;3.38;;;;;;;;;;20916300;28;20051;-62
2023/08/21 18:53:31;;;;;;;7.93;2.90;;;;;;;;;;20914500;28;20060;-63
2023/08/21 19:03:32;;;;;;;8.32;3.17;;;;;;;;;;20913271;28;20045;-64
2023/08/21 19:13:34;;;;;;;14.05;3.80;;;;;;;;;;20913985;28;20517;-63
2023/08/21 19:23:35;;;;;;;8.82;4.07;;;;;;;;;;20913648;28;20101;-64
2023/08/21 19:33:36;;;;;;;9.35;4.15;;;;;;;;;;20912244;28;20061;-63
2023/08/21 19:43:39;;;;;;;11.23;5.10;;;;;;;;;;20917882;28;20052;-63
2023/08/21 19:53:40;;;;;;;11.75;4.85;;;;;;;;;;20930125;28;20118;-63
2023/08/21 20:03:41;;;;;;;8.27;4.80;;;;;;;;;;20928490;28;20398;-63
2023/08/21 20:13:42;;;;;;;8.20;3.80;;;;;;;;;;20927899;28;20490;-63
2023/08/21 20:23:43;;;;;;;8.18;4.20;;;;;;;;;;20927050;28;20406;-63
2023/08/21 20:33:45;;;;;;;12.20;4.95;;;;;;;;;;20926448;28;20079;-63
2023/08/21 20:43:46;;;;;;;11.25;5.15;;;;;;;;;;20925499;28;20083;-62
2023/08/21 20:53:47;;;;;;;9.98;4.43;;;;;;;;;;20925348;28;20406;-63
2023/08/21 21:03:48;;;;;;;7.40;3.50;;;;;;;;;;20923822;28;20094;-63
2023/08/21 21:13:49;;;;;;;9.88;3.17;;;;;;;;;;20922657;28;20514;-63
2023/08/21 21:23:50;;;;;;;5.55;2.22;;;;;;;;;;20916178;28;20045;-64
2023/08/21 21:33:53;;;;;;;15.02;6.30;;;;;;;;;;20917716;28;20045;-63
2023/08/21 21:43:54;;;;;;;7.43;2.42;;;;;;;;;;20911987;28;20049;-63
2023/08/21 21:53:55;;;;;;;5.65;2.60;;;;;;;;;;20916738;28;20506;-64
2023/08/21 22:03:56;;;;;;;4.25;1.92;;;;;;;;;;20918721;28;20053;-65
2023/08/21 22:13:57;;;;;;;6.63;1.90;;;;;;;;;;20919338;28;20044;-64
2023/08/21 22:23:59;;;;;;;7.90;1.95;;;;;;;;;;20916575;28;20052;-65
2023/08/21 22:34:00;;;;;;;8.43;2.28;;;;;;;;;;20917078;28;20045;-64
2023/08/21 22:44:01;;;;;;;5.68;3.72;;;;;;;;;;20916455;28;20554;-62
2023/08/21 22:54:02;;;;;;;7.40;2.17;;;;;;;;;;20914870;28;20570;-64
2023/08/21 23:04:03;;;;;;;8.07;1.85;;;;;;;;;;20914843;28;20574;-63
2023/08/21 23:14:05;;;;;;;8.20;1.98;;;;;;;;;;20913233;28;20041;-63
2023/08/21 23:24:06;;;;;;;8.15;2.25;;;;;;;;;;20912000;28;20124;-63
2023/08/21 23:34:07;;;;;;;7.80;2.20;;;;;;;;;;20913551;28;20041;-64
2023/08/21 23:44:09;;;;;;;6.38;1.73;;;;;;;;;;20913145;28;20058;-64
2023/08/21 23:54:10;;;;;;;8.45;2.22;;;;;;;;;;20911939;28;20057;-63
